Meteo Giornale » Osservazioni meteo Italia » S Maria Di Leuca

ore: 15:55 - Osservazioni Meteo S Maria Di Leuca
Lat. 39° 49' N Lon. 18° 21' E Alt. 104 metri s.l.m.

sereno Europe/Rome

21 °C

Sereno

Temp. 24 Ore

18 °C

23 °C

Sud-Ovest

7.4 Km/h

Dew point 16 °C

Umidità 73 %

Visibilità  10 Km

Il sole sorge alle ore 05:52

Il sole tramonta alle ore 19:36

Data e Ora Cielo e Fenomeni T °C DP °C Um. % Pres. hPa Vis. km Vento km/h
Oggi h: 15:55 sereno Sereno 21 16 73 1016 10 SO 7.4
Oggi h: 14:55 sereno Sereno 21 13 60 1017 10 S/SO 9.3
Oggi h: 13:55 sereno Sereno 22 12 53 1017 10 S/SE 9.3
Oggi h: 12:55 sereno Sereno 22 9 43 1017 10 SE 9.3
Oggi h: 11:55 sereno Sereno 23 8 38 1017 10 E/SE 11.1
Oggi h: 10:55 sereno Sereno 22 10 46 1017 10 E/NE 9.3
Oggi h: 08:55 sereno Sereno 20 14 68 1017 10 N 5.5
Oggi h: 07:55 sereno Sereno 19 15 77 1017 10 N 5.5
Oggi h: 06:55 sereno Sereno 18 14 77 1017 10 N 5.5
Oggi h: 05:55 sereno Sereno 18 17 93 1017 10 N 9.3
Oggi h: 03:55 sereno Sereno 18 17 93 1017 10 N 7.4
Oggi h: 02:55 sereno Sereno 19 17 88 1017 10 NO 7.4
Oggi h: 01:55 sereno Sereno 19 17 88 1017 10 O/NO 7.4
Oggi h: 00:55 sereno Sereno 19 17 88 1017 10 O 7.4
Ieri h: 23:55 sereno Sereno 18 16 88 1017 10 N 3.7
Ieri h: 22:55 sereno Sereno 18 16 88 1017 10 N 5.5
Ieri h: 21:55 sereno Sereno 18 16 88 1017 10 N 5.5
Ieri h: 20:55 sereno Sereno 18 16 88 1017 10 O/SO 7.4
Ieri h: 19:55 sereno Sereno 19 14 72 1017 10 O/SO 7.4
Ieri h: 18:55 sereno Sereno 20 11 56 1017 10 N 5.5